Time;durP1;ratioP1;P1;durP2;ratioP2;P2;SDS_P1;SDS_P2;PMS_P1;PMS_P2;Temp;Humidity;BMP_temperature;BMP_pressure;BME280_temperature;BME280_humidity;BME280_pressure;Samples;Min_cycle;Max_cycle;Signal;HPM_P1;HPM_P2
2022/07/14 00:00:04;;;;;;;;;;;;;;;22.26;47.86;101137.31;7408452;19;1370;-59
2022/07/14 00:02:35;;;;;;;;;;;;;;;22.29;47.75;101118.19;7405825;19;1685;-52
2022/07/14 00:05:03;;;;;;;;;;;;;;;22.32;47.56;101129.53;7407310;19;1648;-53
2022/07/14 00:07:31;;;;;;;;;;;;;;;22.33;47.88;101162.69;7407233;19;1748;-58
2022/07/14 00:10:00;;;;;;;;;;;;;;;22.29;47.55;101123.56;7405018;19;1884;-53
2022/07/14 00:12:28;;;;;;;;;;;;;;;22.17;47.82;101137.19;7406347;19;1542;-59
2022/07/14 00:14:56;;;;;;;;;;;;;;;22.19;48.23;101154.06;7407075;19;1300;-58
2022/07/14 00:17:25;;;;;;;;;;;;;;;22.18;47.66;101132.66;7407873;19;1605;-52
2022/07/14 00:19:56;;;;;;;;;;;;;;;22.26;48.00;101158.88;7406898;19;1355;-58
2022/07/14 00:22:24;;;;;;;;;;;;;;;22.23;47.96;101157.31;7406145;19;1665;-53
2022/07/14 00:24:52;;;;;;;;;;;;;;;22.09;47.78;101141.63;7406607;19;1569;-58
2022/07/14 00:27:21;;;;;;;;;;;;;;;22.13;47.74;101160.03;7407074;19;1362;-59
2022/07/14 00:29:50;;;;;;;;;;;;;;;22.07;47.38;101144.47;7405446;19;1871;-58
2022/07/14 00:32:18;;;;;;;;;;;;;;;22.09;47.56;101141.63;7405570;19;1570;-58
2022/07/14 00:34:46;;;;;;;;;;;;;;;22.18;47.40;101148.81;7406213;19;1459;-52
2022/07/14 00:37:17;;;;;;;;;;;;;;;22.17;47.33;101145.28;7406417;19;1533;-53
2022/07/14 00:39:58;;;;;;;;;;;;;;;22.15;47.32;101154.50;7406770;19;1634;-52
2022/07/14 00:42:34;;;;;;;;;;;;;;;22.12;47.56;101150.25;7406803;19;1549;-58
2022/07/14 00:45:04;;;;;;;;;;;;;;;22.10;47.68;101152.22;7407017;19;992;-58
2022/07/14 00:47:32;;;;;;;;;;;;;;;22.12;47.33;101139.47;7404394;19;1767;-52
2022/07/14 00:50:01;;;;;;;;;;;;;;;22.09;47.71;101145.16;7402707;19;1864;-58
2022/07/14 00:52:32;;;;;;;;;;;;;;;22.06;47.53;101145.44;7405988;19;1534;-58
2022/07/14 00:55:01;;;;;;;;;;;;;;;22.11;47.71;101145.88;7405500;19;1557;-58
2022/07/14 00:57:29;;;;;;;;;;;;;;;22.14;47.59;101144.72;7405953;19;1273;-53
2022/07/14 00:59:58;;;;;;;;;;;;;;;22.09;47.51;101139.78;7406715;19;1537;-58
2022/07/14 01:02:26;;;;;;;;;;;;;;;22.08;47.44;101138.06;7403781;19;1653;-58
2022/07/14 01:04:55;;;;;;;;;;;;;;;22.07;47.40;101141.75;7405550;19;1379;-52
2022/07/14 01:07:23;;;;;;;;;;;;;;;22.09;47.33;101150.53;7405050;19;1643;-59
2022/07/14 01:09:54;;;;;;;;;;;;;;;22.12;47.34;101142.16;7404121;19;1860;-53
2022/07/14 01:12:22;;;;;;;;;;;;;;;22.11;47.45;101136.94;7403051;19;1455;-57
2022/07/14 01:14:51;;;;;;;;;;;;;;;22.15;47.34;101132.97;7405147;19;1532;-58
2022/07/14 01:17:19;;;;;;;;;;;;;;;22.12;47.03;101147.53;7404528;19;1513;-58
2022/07/14 01:19:48;;;;;;;;;;;;;;;22.15;47.12;101149.97;7405168;19;1451;-58
2022/07/14 01:22:19;;;;;;;;;;;;;;;22.06;46.60;101131.97;7405123;19;1911;-52
2022/07/14 01:24:48;;;;;;;;;;;;;;;22.09;46.80;101145.16;7405078;19;1684;-58
2022/07/14 01:27:16;;;;;;;;;;;;;;;22.12;47.02;101147.53;7405341;19;1615;-52
2022/07/14 01:29:44;;;;;;;;;;;;;;;22.13;46.57;101134.94;7403543;19;1865;-52
2022/07/14 01:32:13;;;;;;;;;;;;;;;22.10;46.43;101129.84;7404675;19;1623;-53
2022/07/14 01:34:41;;;;;;;;;;;;;;;22.10;46.90;101128.00;7404875;19;1534;-58
2022/07/14 01:37:10;;;;;;;;;;;;;;;22.13;46.86;101143.88;7404091;19;1544;-58
2022/07/14 01:39:41;;;;;;;;;;;;;;;22.07;46.67;101131.00;7404801;19;1620;-59
2022/07/14 01:42:10;;;;;;;;;;;;;;;22.08;46.73;101138.06;7404244;19;1684;-58
2022/07/14 01:44:38;;;;;;;;;;;;;;;22.07;46.92;101141.75;7408490;19;1676;-52
2022/07/14 01:47:06;;;;;;;;;;;;;;;22.09;46.59;101155.94;7411244;19;1727;-52
2022/07/14 01:49:35;;;;;;;;;;;;;;;22.05;46.78;101120.34;7410342;19;1859;-53
2022/07/14 01:52:03;;;;;;;;;;;;;;;22.05;46.68;101144.59;7411518;19;1533;-52
2022/07/14 01:54:32;;;;;;;;;;;;;;;22.05;46.78;101149.16;7411289;19;1558;-58
2022/07/14 01:57:03;;;;;;;;;;;;;;;22.02;46.92;101139.53;7411056;19;1569;-57
2022/07/14 01:59:31;;;;;;;;;;;;;;;22.05;46.77;101162.59;7412205;19;1613;-52
2022/07/14 02:02:00;;;;;;;;;;;;;;;22.05;46.71;101143.75;7399517;19;1403;-53
2022/07/14 02:04:29;;;;;;;;;;;;;;;22.02;47.01;101155.69;7411150;19;1617;-58
2022/07/14 02:06:58;;;;;;;;;;;;;;;22.00;46.71;101160.38;7410805;19;1671;-58
2022/07/14 02:12:10;;;;;;;;;;;;;;;22.04;46.85;101153.69;7409840;19;1844;-52
2022/07/14 02:12:15;;;;;;;;;;;;;;;22.08;46.63;101165.00;7408826;19;1659;-58
2022/07/14 02:14:44;;;;;;;;;;;;;;;22.02;46.54;101160.19;7410807;19;1380;-54
2022/07/14 02:17:12;;;;;;;;;;;;;;;22.04;46.62;101168.97;7411242;19;1525;-52
2022/07/14 02:19:41;;;;;;;;;;;;;;;22.03;46.59;101168.13;7410475;19;1753;-52
2022/07/14 02:22:09;;;;;;;;;;;;;;;22.08;46.50;101165.00;7410196;19;1767;-58
2022/07/14 02:24:38;;;;;;;;;;;;;;;21.99;46.54;101163.19;7410884;19;1614;-54
2022/07/14 02:27:06;;;;;;;;;;;;;;;21.87;46.91;101162.50;7410550;19;1537;-53
2022/07/14 02:29:38;;;;;;;;;;;;;;;21.91;46.90;101177.38;7409966;19;1861;-52
2022/07/14 02:32:07;;;;;;;;;;;;;;;21.93;47.00;101180.78;7408853;19;1508;-53
2022/07/14 02:34:35;;;;;;;;;;;;;;;21.94;46.87;101178.94;7410077;19;1412;-58
2022/07/14 02:37:04;;;;;;;;;;;;;;;21.94;46.65;101178.94;7409469;19;1352;-53
2022/07/14 02:39:32;;;;;;;;;;;;;;;21.91;46.99;101179.22;7410903;19;1522;-58
2022/07/14 02:42:00;;;;;;;;;;;;;;;21.96;46.92;101180.47;7409592;19;1565;-53
2022/07/14 02:44:29;;;;;;;;;;;;;;;21.99;46.96;101173.97;7410724;19;1538;-58
2022/07/14 02:47:00;;;;;;;;;;;;;;;22.04;46.69;101171.66;7408662;19;1759;-52
2022/07/14 02:49:29;;;;;;;;;;;;;;;21.99;46.90;101171.28;7405845;19;1866;-57
2022/07/14 02:51:57;;;;;;;;;;;;;;;21.97;46.86;101176.81;7405037;19;1359;-56
2022/07/14 02:54:25;;;;;;;;;;;;;;;22.00;46.76;101172.97;7409337;19;1382;-52
2022/07/14 02:56:54;;;;;;;;;;;;;;;22.10;46.63;101179.16;7409139;19;1232;-58
2022/07/14 02:59:22;;;;;;;;;;;;;;;21.90;47.09;101182.91;7409178;19;1108;-52
2022/07/14 03:01:50;;;;;;;;;;;;;;;21.84;46.87;101179.81;7406898;19;1786;-52
2022/07/14 03:04:21;;;;;;;;;;;;;;;21.97;47.12;101165.19;7405670;19;1523;-50
2022/07/14 03:06:50;;;;;;;;;;;;;;;21.83;47.19;101171.88;7406955;19;1745;-58
2022/07/14 03:09:18;;;;;;;;;;;;;;;21.93;46.85;101193.41;7404069;19;1850;-52
2022/07/14 03:11:47;;;;;;;;;;;;;;;21.92;46.92;101184.44;7402969;19;1640;-52
2022/07/14 03:14:15;;;;;;;;;;;;;;;21.88;46.67;101184.88;7405016;19;1375;-52
2022/07/14 03:16:44;;;;;;;;;;;;;;;21.87;47.05;101192.13;7406311;19;1657;-52
2022/07/14 03:19:12;;;;;;;;;;;;;;;21.87;46.98;101184.06;7404345;19;1615;-58
2022/07/14 03:21:44;;;;;;;;;;;;;;;21.85;46.80;101192.25;7407204;19;1534;-58
2022/07/14 03:24:13;;;;;;;;;;;;;;;21.89;47.01;101198.22;7405930;19;1525;-53
2022/07/14 03:26:42;;;;;;;;;;;;;;;21.90;46.97;101199.06;7408075;19;1479;-58
2022/07/14 03:29:10;;;;;;;;;;;;;;;21.91;47.07;101184.63;7406313;19;1862;-51
2022/07/14 03:31:39;;;;;;;;;;;;;;;21.87;46.82;101194.81;7407987;19;1589;-58
2022/07/14 03:34:07;;;;;;;;;;;;;;;21.91;46.54;101198.09;7407767;19;1365;-52
2022/07/14 03:36:36;;;;;;;;;;;;;;;21.91;46.54;101201.63;7406936;19;1336;-50
2022/07/14 03:39:07;;;;;;;;;;;;;;;21.97;46.63;101200.19;7408326;19;1354;-58
2022/07/14 03:41:35;;;;;;;;;;;;;;;22.02;46.29;101209.53;7408267;19;1537;-56
2022/07/14 03:44:03;;;;;;;;;;;;;;;22.01;46.33;101220.44;7405867;19;1671;-58
2022/07/14 03:46:32;;;;;;;;;;;;;;;21.97;46.28;101211.81;7407631;19;1574;-58
2022/07/14 03:49:00;;;;;;;;;;;;;;;21.98;46.07;101228.81;7406860;19;1860;-52
2022/07/14 03:51:29;;;;;;;;;;;;;;;22.04;45.83;101234.47;7407031;19;1533;-52
2022/07/14 03:53:57;;;;;;;;;;;;;;;22.10;46.03;101227.66;7408481;19;1620;-52
2022/07/14 03:56:29;;;;;;;;;;;;;;;22.09;46.08;101212.50;7407140;19;1530;-52
2022/07/14 03:58:57;;;;;;;;;;;;;;;22.10;45.98;101226.81;7404445;19;1702;-52
2022/07/14 04:01:26;;;;;;;;;;;;;;;22.09;46.11;101217.03;7399913;19;1394;-59
2022/07/14 04:03:54;;;;;;;;;;;;;;;22.09;46.42;101219.72;7403335;19;1537;-52
2022/07/14 04:06:23;;;;;;;;;;;;;;;22.05;46.48;101240.72;7401564;19;1283;-50
2022/07/14 04:08:51;;;;;;;;;;;;;;;22.09;46.59;101225.97;7407192;19;1253;-52
2022/07/14 04:11:19;;;;;;;;;;;;;;;22.17;46.35;101206.38;7401385;19;1847;-56
2022/07/14 04:13:50;;;;;;;;;;;;;;;22.19;46.32;101223.25;7406010;19;1621;-52
2022/07/14 04:16:19;;;;;;;;;;;;;;;22.19;46.03;101225.94;7403634;19;1553;-52
2022/07/14 04:18:47;;;;;;;;;;;;;;;22.24;46.54;101227.25;7404353;19;1553;-52
2022/07/14 04:21:15;;;;;;;;;;;;;;;22.28;46.41;101245.78;7404747;19;1562;-52
2022/07/14 04:23:44;;;;;;;;;;;;;;;22.26;46.22;101237.84;7407271;19;1396;-58
2022/07/14 04:26:12;;;;;;;;;;;;;;;22.29;46.45;101234.03;7406623;19;1195;-52
2022/07/14 04:28:41;;;;;;;;;;;;;;;22.31;46.40;101234.75;7405365;19;1387;-52
2022/07/14 04:31:12;;;;;;;;;;;;;;;22.35;46.33;101238.84;7404265;19;1854;-58
2022/07/14 04:33:40;;;;;;;;;;;;;;;22.36;46.40;101243.22;7405492;19;1340;-52
2022/07/14 04:36:10;;;;;;;;;;;;;;;22.46;46.37;101249.41;7404955;19;1326;-53
2022/07/14 04:38:39;;;;;;;;;;;;;;;22.40;46.65;101236.53;7404845;19;1802;-52
2022/07/14 04:41:07;;;;;;;;;;;;;;;22.33;46.96;101228.19;7404679;19;1538;-52
2022/07/14 04:43:36;;;;;;;;;;;;;;;22.39;46.79;101226.78;7402936;19;1379;-52
2022/07/14 04:46:05;;;;;;;;;;;;;;;22.49;46.36;101241.06;7402652;19;1666;-58
2022/07/14 04:52:01;;;;;;;;;;;;;;;22.49;46.48;101246.44;7401223;19;1463;-58
2022/07/14 04:54:05;;;;;;;;;;;;;;;22.55;46.82;101216.22;7405022;19;1248;-52
2022/07/14 04:56:34;;;;;;;;;;;;;;;22.67;46.98;101256.47;7401868;19;1666;-52
2022/07/14 04:59:02;;;;;;;;;;;;;;;22.67;47.02;101234.91;7402468;19;1418;-52
2022/07/14 05:01:30;;;;;;;;;;;;;;;22.75;47.03;101245.78;7401371;19;1442;-59
2022/07/14 05:04:01;;;;;;;;;;;;;;;22.79;46.74;101239.09;7402835;19;1233;-50
2022/07/14 05:06:30;;;;;;;;;;;;;;;22.87;47.26;101241.88;7401658;19;1349;-59
2022/07/14 05:08:58;;;;;;;;;;;;;;;22.86;47.30;101233.94;7401217;19;1336;-53
2022/07/14 05:11:26;;;;;;;;;;;;;;;22.89;47.39;101242.59;7396272;19;1858;-52
2022/07/14 05:13:55;;;;;;;;;;;;;;;22.87;47.33;101231.09;7401033;19;1613;-53
2022/07/14 05:16:24;;;;;;;;;;;;;;;22.94;47.47;101220.56;7402323;19;1311;-59
2022/07/14 05:18:52;;;;;;;;;;;;;;;22.99;47.43;101219.09;7401559;19;1266;-52
2022/07/14 05:21:24;;;;;;;;;;;;;;;23.05;47.39;101228.47;7402627;19;1386;-53
2022/07/14 05:23:52;;;;;;;;;;;;;;;23.03;47.60;101241.28;7400799;19;1319;-51
2022/07/14 05:26:21;;;;;;;;;;;;;;;23.08;47.60;101233.59;7403283;19;1370;-59
2022/07/14 05:28:49;;;;;;;;;;;;;;;23.05;48.06;101228.47;7402445;19;1304;-57
2022/07/14 05:31:18;;;;;;;;;;;;;;;23.06;48.45;101221.22;7400817;19;1855;-60
2022/07/14 05:33:46;;;;;;;;;;;;;;;23.07;48.47;101231.88;7402458;19;1200;-59
2022/07/14 05:36:14;;;;;;;;;;;;;;;23.08;48.43;101219.22;7404175;19;1311;-53
2022/07/14 05:38:46;;;;;;;;;;;;;;;23.03;48.83;101220.53;7403534;19;1252;-56
2022/07/14 05:41:14;;;;;;;;;;;;;;;23.05;48.65;101211.47;7403988;19;1585;-53
2022/07/14 05:43:43;;;;;;;;;;;;;;;23.05;48.94;101224.94;7403323;19;1771;-54
2022/07/14 05:46:12;;;;;;;;;;;;;;;23.03;49.01;101212.44;7403735;19;1621;-56
2022/07/14 05:48:41;;;;;;;;;;;;;;;23.06;49.18;101213.13;7403135;19;1537;-54
2022/07/14 05:51:11;;;;;;;;;;;;;;;23.05;48.75;101217.69;7402722;19;1856;-55
2022/07/14 05:53:40;;;;;;;;;;;;;;;23.17;48.80;101239.91;7404849;19;1605;-53
2022/07/14 05:56:12;;;;;;;;;;;;;;;23.10;49.11;101217.22;7404143;19;1542;-56
2022/07/14 05:58:41;;;;;;;;;;;;;;;23.08;48.89;101212.00;7402774;19;1644;-57
2022/07/14 06:01:10;;;;;;;;;;;;;;;23.10;49.30;101215.41;7402167;19;1548;-56
2022/07/14 06:03:38;;;;;;;;;;;;;;;23.09;49.23;101226.34;7402581;19;1573;-56
2022/07/14 06:06:08;;;;;;;;;;;;;;;23.09;48.89;101232.56;7404362;19;1533;-54
2022/07/14 06:08:36;;;;;;;;;;;;;;;23.13;49.12;101235.81;7402462;19;1664;-55
2022/07/14 06:11:06;;;;;;;;;;;;;;;23.11;49.05;101221.63;7401689;19;1854;-53
2022/07/14 06:13:40;;;;;;;;;;;;;;;23.12;49.06;101218.78;7402664;19;1586;-56
2022/07/14 06:16:09;;;;;;;;;;;;;;;23.14;49.03;101211.41;7402562;19;1605;-54
2022/07/14 06:18:38;;;;;;;;;;;;;;;23.14;49.08;101215.91;7403159;19;1537;-53
2022/07/14 06:21:09;;;;;;;;;;;;;;;23.18;49.33;101220.03;7401470;19;1292;-56
2022/07/14 06:23:37;;;;;;;;;;;;;;;23.19;49.10;101235.22;7403659;19;1799;-56
2022/07/14 06:26:12;;;;;;;;;;;;;;;23.18;49.32;101217.34;7402818;19;1237;-56
2022/07/14 06:28:44;;;;;;;;;;;;;;;23.22;49.04;101219.56;7401366;19;1656;-56
2022/07/14 06:31:12;;;;;;;;;;;;;;;23.19;49.33;101225.25;7406433;19;1854;-56
2022/07/14 06:33:41;;;;;;;;;;;;;;;23.19;49.37;101213.63;7410191;19;1628;-54
2022/07/14 06:36:10;;;;;;;;;;;;;;;23.15;49.45;101221.16;7409795;19;1542;-54
2022/07/14 06:38:38;;;;;;;;;;;;;;;23.23;49.49;101221.25;7410684;19;1711;-54
2022/07/14 06:41:06;;;;;;;;;;;;;;;23.25;49.29;101210.31;7407524;19;1581;-56
2022/07/14 06:43:35;;;;;;;;;;;;;;;23.27;49.60;101221.81;7408890;19;1439;-55
2022/07/14 06:46:07;;;;;;;;;;;;;;;23.29;49.52;101214.41;7409099;19;1347;-56
2022/07/14 06:48:35;;;;;;;;;;;;;;;23.26;49.44;101230.91;7410113;19;1617;-54
2022/07/14 06:51:04;;;;;;;;;;;;;;;23.22;49.85;101224.13;7406720;19;1849;-54
2022/07/14 06:53:33;;;;;;;;;;;;;;;23.24;49.85;101214.03;7409948;19;1544;-56
2022/07/14 06:56:01;;;;;;;;;;;;;;;23.24;49.49;101214.03;7409981;19;1573;-56
2022/07/14 06:58:30;;;;;;;;;;;;;;;23.27;49.51;101210.16;7408133;19;1730;-56
2022/07/14 07:00:58;;;;;;;;;;;;;;;23.28;49.38;101228.91;7408752;19;1621;-54
2022/07/14 07:03:29;;;;;;;;;;;;;;;23.27;49.53;101210.16;7409464;19;1542;-54
2022/07/14 07:08:38;;;;;;;;;;;;;;;23.30;49.77;101208.03;7411254;19;1605;-56
2022/07/14 07:11:07;;;;;;;;;;;;;;;23.29;49.66;101203.59;7405623;19;1851;-54
2022/07/14 07:13:36;;;;;;;;;;;;;;;23.35;49.83;101199.44;7408457;19;1565;-53
2022/07/14 07:16:06;;;;;;;;;;;;;;;23.28;49.92;101207.31;7408124;19;1652;-56
2022/07/14 07:18:37;;;;;;;;;;;;;;;23.32;50.01;101208.72;7407884;19;1577;-56
2022/07/14 07:21:06;;;;;;;;;;;;;;;23.33;49.95;101215.78;7408264;19;1876;-54
2022/07/14 07:23:34;;;;;;;;;;;;;;;23.35;49.92;101226.44;7408905;19;1549;-56
2022/07/14 07:26:03;;;;;;;;;;;;;;;23.31;49.88;101206.16;7408524;19;1653;-56
2022/07/14 07:28:31;;;;;;;;;;;;;;;23.32;49.80;101208.72;7408219;19;1602;-56
2022/07/14 07:31:00;;;;;;;;;;;;;;;23.38;50.04;101223.44;7400389;19;1857;-54
2022/07/14 07:33:28;;;;;;;;;;;;;;;23.36;50.12;101210.09;7407690;19;1609;-56
2022/07/14 07:35:59;;;;;;;;;;;;;;;23.30;50.05;101205.31;7405952;19;1570;-54
2022/07/14 07:38:28;;;;;;;;;;;;;;;23.36;50.04;101193.91;7407640;19;1602;-53
2022/07/14 07:40:56;;;;;;;;;;;;;;;23.31;50.24;101201.59;7408123;19;1597;-54
2022/07/14 07:43:25;;;;;;;;;;;;;;;23.32;50.16;101192.53;7406929;19;1345;-54
2022/07/14 07:45:53;;;;;;;;;;;;;;;23.36;50.02;101209.25;7406507;19;1542;-56
2022/07/14 07:48:22;;;;;;;;;;;;;;;23.29;50.69;101195.50;7403567;19;1407;-56
2022/07/14 07:50:50;;;;;;;;;;;;;;;22.50;51.94;101185.31;7405706;19;1855;-56
2022/07/14 07:53:22;;;;;;;;;;;;;;;21.59;52.72;101175.03;7408088;19;1644;-56
2022/07/14 07:55:50;;;;;;;;;;;;;;;21.33;52.21;101202.47;7405729;19;1632;-56
2022/07/14 07:58:18;;;;;;;;;;;;;;;21.08;52.09;101198.44;7407682;19;1336;-53
2022/07/14 08:00:47;;;;;;;;;;;;;;;21.29;51.72;101194.78;7406504;19;1542;-54
2022/07/14 08:03:15;;;;;;;;;;;;;;;21.44;52.20;101188.03;7406374;19;1317;-53
2022/07/14 08:05:44;;;;;;;;;;;;;;;21.58;54.29;101193.00;7408372;19;1600;-54
2022/07/14 08:08:12;;;;;;;;;;;;;;;22.00;54.05;101197.19;7402643;19;1735;-52
2022/07/14 08:10:43;;;;;;;;;;;;;;;22.49;52.29;101181.75;7402992;19;1844;-57
2022/07/14 08:13:12;;;;;;;;;;;;;;;22.75;51.67;101175.69;7406087;19;1474;-52
2022/07/14 08:15:40;;;;;;;;;;;;;;;22.81;51.55;101178.63;7405607;19;1304;-56
2022/07/14 08:18:09;;;;;;;;;;;;;;;22.95;51.41;101171.03;7405220;19;1548;-55
2022/07/14 08:20:38;;;;;;;;;;;;;;;22.98;51.50;101163.47;7404944;19;1423;-56
2022/07/14 08:23:06;;;;;;;;;;;;;;;23.05;51.09;101169.13;7407268;19;1378;-54
2022/07/14 08:25:35;;;;;;;;;;;;;;;23.08;51.36;101165.28;7405926;19;1250;-55
2022/07/14 08:28:07;;;;;;;;;;;;;;;23.09;51.27;101169.69;7404287;19;1636;-53
2022/07/14 08:30:35;;;;;;;;;;;;;;;23.12;51.78;101163.97;7405843;19;1852;-57
2022/07/14 08:33:03;;;;;;;;;;;;;;;23.14;51.73;101160.13;7405753;19;1684;-57
2022/07/14 08:35:34;;;;;;;;;;;;;;;23.16;51.95;101157.28;7405506;19;1721;-53
2022/07/14 08:38:02;;;;;;;;;;;;;;;23.21;51.78;101176.56;7407218;19;1589;-52
2022/07/14 08:40:30;;;;;;;;;;;;;;;23.14;51.68;101170.06;7404088;19;1495;-51
2022/07/14 08:42:59;;;;;;;;;;;;;;;23.14;51.90;101164.66;7403420;19;1557;-56
2022/07/14 08:45:32;;;;;;;;;;;;;;;23.17;51.75;101159.81;7401614;19;1262;-58
2022/07/14 08:48:00;;;;;;;;;;;;;;;23.19;51.80;101165.06;7403925;19;1300;-56
2022/07/14 08:50:29;;;;;;;;;;;;;;;23.23;52.06;101158.34;7405256;19;1233;-57
2022/07/14 08:52:57;;;;;;;;;;;;;;;23.24;51.85;101162.75;7403840;19;1862;-55
2022/07/14 08:55:26;;;;;;;;;;;;;;;23.20;51.75;101161.38;7404271;19;1736;-53
2022/07/14 08:57:54;;;;;;;;;;;;;;;23.20;51.85;101155.97;7399748;19;1268;-58
2022/07/14 09:00:22;;;;;;;;;;;;;;;23.19;52.11;101143.47;7403956;19;1238;-53
2022/07/14 09:02:54;;;;;;;;;;;;;;;23.24;51.88;101143.88;7402322;19;1318;-57
2022/07/14 09:05:23;;;;;;;;;;;;;;;23.25;51.66;101159.06;7405275;19;1371;-57
2022/07/14 09:07:56;;;;;;;;;;;;;;;23.30;51.67;101170.25;7403617;19;1719;-57
2022/07/14 09:10:26;;;;;;;;;;;;;;;23.27;51.87;101151.66;7404326;19;1453;-54
2022/07/14 09:13:11;;;;;;;;;;;;;;;23.25;52.12;101150.94;7403112;19;1849;-57
2022/07/14 09:15:48;;;;;;;;;;;;;;;23.23;52.20;101148.41;7404724;19;1299;-56
2022/07/14 09:18:27;;;;;;;;;;;;;;;23.23;51.73;101139.47;7404394;19;1277;-53
2022/07/14 09:20:56;;;;;;;;;;;;;;;23.32;51.46;101149.34;7403247;19;1499;-57
2022/07/14 09:23:28;;;;;;;;;;;;;;;23.30;51.66;101145.09;7403098;19;1514;-52
2022/07/14 09:26:11;;;;;;;;;;;;;;;23.26;52.00;101132.91;7403875;19;1320;-57
2022/07/14 09:28:41;;;;;;;;;;;;;;;23.25;51.88;101137.47;7403059;19;1592;-53
2022/07/14 09:31:24;;;;;;;;;;;;;;;23.26;51.91;101135.59;7403322;19;1865;-57
2022/07/14 09:33:56;;;;;;;;;;;;;;;23.23;52.16;101148.41;7403950;19;1344;-57
2022/07/14 09:36:28;;;;;;;;;;;;;;;23.25;52.20;101121.28;7404305;19;1530;-53
2022/07/14 09:38:59;;;;;;;;;;;;;;;23.25;52.27;101121.28;7402364;19;1268;-53
2022/07/14 09:41:29;;;;;;;;;;;;;;;23.22;52.05;101113.50;7403051;19;1953;-53
2022/07/14 09:44:10;;;;;;;;;;;;;;;23.28;52.13;101120.97;7404058;19;1304;-56
2022/07/14 09:46:53;;;;;;;;;;;;;;;23.27;52.14;101123.81;7403570;19;1668;-53
2022/07/14 09:49:24;;;;;;;;;;;;;;;23.26;52.41;101101.41;7403748;19;1668;-57
2022/07/14 09:51:56;;;;;;;;;;;;;;;23.26;52.22;101117.59;7402666;19;1863;-53
2022/07/14 09:54:40;;;;;;;;;;;;;;;23.22;52.13;101105.41;7403378;19;1670;-53
2022/07/14 09:57:08;;;;;;;;;;;;;;;23.23;52.27;101101.69;7403510;19;1699;-54
2022/07/14 09:59:44;;;;;;;;;;;;;;;23.21;52.23;101099.16;7403109;19;1510;-56
2022/07/14 10:02:17;;;;;;;;;;;;;;;23.22;52.36;101095.47;7402708;19;1367;-53
2022/07/14 10:04:49;;;;;;;;;;;;;;;23.22;52.27;101094.63;7404474;19;1545;-57
2022/07/14 10:07:18;;;;;;;;;;;;;;;23.24;52.42;101103.41;7410326;19;1703;-53
2022/07/14 10:09:49;;;;;;;;;;;;;;;23.20;52.35;101097.47;7411822;19;1692;-57
2022/07/14 10:12:17;;;;;;;;;;;;;;;23.22;52.31;101106.25;7408438;19;1853;-53
2022/07/14 10:14:46;;;;;;;;;;;;;;;23.21;52.52;101088.34;7410759;19;1739;-53
2022/07/14 10:17:15;;;;;;;;;;;;;;;23.21;52.74;101104.53;7410742;19;1344;-57
2022/07/14 10:19:44;;;;;;;;;;;;;;;23.21;52.76;101092.91;7411133;19;1569;-55
2022/07/14 10:22:16;;;;;;;;;;;;;;;23.25;52.74;101097.00;7410565;19;1859;-55
2022/07/14 10:24:45;;;;;;;;;;;;;;;23.22;52.60;101083.81;7411417;19;1350;-53
2022/07/14 10:27:14;;;;;;;;;;;;;;;23.21;52.77;101077.56;7410235;19;1456;-53
2022/07/14 10:29:42;;;;;;;;;;;;;;;23.23;52.88;101078.25;7409832;19;1540;-53
2022/07/14 10:32:18;;;;;;;;;;;;;;;23.27;52.59;101076.09;7409336;19;1869;-57
2022/07/14 10:34:48;;;;;;;;;;;;;;;23.22;52.88;101067.63;7410272;19;1438;-57
2022/07/14 10:37:24;;;;;;;;;;;;;;;23.24;52.87;101065.63;7409721;19;1491;-57
2022/07/14 10:40:00;;;;;;;;;;;;;;;23.26;53.13;101079.81;7409484;19;1514;-54
2022/07/14 10:42:33;;;;;;;;;;;;;;;23.23;52.76;101053.13;7408523;19;1340;-53
2022/07/14 10:45:03;;;;;;;;;;;;;;;23.24;53.19;101052.13;7410031;19;1359;-57
2022/07/14 10:47:45;;;;;;;;;;;;;;;23.27;53.27;101059.91;7409273;19;1878;-54
2022/07/14 10:50:14;;;;;;;;;;;;;;;23.25;53.04;101052.97;7409869;19;1522;-57
2022/07/14 10:52:59;;;;;;;;;;;;;;;23.25;52.88;101048.41;7407653;19;1856;-57
2022/07/14 10:55:35;;;;;;;;;;;;;;;23.25;53.04;101044.88;7409123;19;1373;-53
2022/07/14 10:58:19;;;;;;;;;;;;;;;23.25;53.14;101050.28;7410269;19;1569;-57
2022/07/14 11:00:58;;;;;;;;;;;;;;;23.29;53.25;101040.88;7409159;19;1578;-56
2022/07/14 11:03:28;;;;;;;;;;;;;;;23.25;53.21;101012.50;7409122;19;1617;-53
2022/07/14 11:06:11;;;;;;;;;;;;;;;23.24;53.09;101022.47;7408633;19;1316;-57
2022/07/14 11:08:43;;;;;;;;;;;;;;;23.26;53.34;101014.19;7409921;19;1379;-53
2022/07/14 11:11:18;;;;;;;;;;;;;;;23.27;53.33;101027.53;7407685;19;1775;-57
2022/07/14 11:14:02;;;;;;;;;;;;;;;23.26;53.00;101025.84;7405576;19;1856;-53
2022/07/14 11:16:45;;;;;;;;;;;;;;;23.28;53.21;101040.03;7404773;19;1705;-58
2022/07/14 11:19:23;;;;;;;;;;;;;;;23.25;53.16;101024.13;7408029;19;1678;-57
2022/07/14 11:22:07;;;;;;;;;;;;;;;23.31;53.15;101028.91;7408533;19;1515;-55
2022/07/14 11:24:46;;;;;;;;;;;;;;;23.35;53.18;101016.78;7407467;19;1829;-54
2022/07/14 11:27:38;;;;;;;;;;;;;;;23.34;53.07;101011.56;7408611;19;1665;-57
2022/07/14 11:30:20;;;;;;;;;;;;;;;23.33;53.23;101007.16;7407350;19;1957;-59
2022/07/14 11:32:58;;;;;;;;;;;;;;;23.34;53.10;101011.56;7407678;19;1849;-53
2022/07/14 11:38:25;;;;;;;;;;;;;;;23.40;53.90;101019.88;7410354;19;1533;-53
2022/07/14 11:40:56;;;;;;;;;;;;;;;23.33;53.69;101008.00;7407381;19;1342;-57
2022/07/14 11:43:39;;;;;;;;;;;;;;;23.40;53.85;101027.13;7407510;19;1432;-56
2022/07/14 11:46:09;;;;;;;;;;;;;;;23.41;54.64;101015.31;7406517;19;1665;-58
2022/07/14 11:48:38;;;;;;;;;;;;;;;23.40;54.09;101011.78;7407913;19;1552;-54
2022/07/14 11:51:07;;;;;;;;;;;;;;;23.43;54.53;100995.25;7407249;19;1538;-58
2022/07/14 11:53:36;;;;;;;;;;;;;;;23.39;54.47;100999.28;7405699;19;1845;-55
2022/07/14 11:56:09;;;;;;;;;;;;;;;23.42;54.75;100993.56;7406201;19;1534;-56
2022/07/14 11:58:39;;;;;;;;;;;;;;;23.47;54.78;101003.03;7406569;19;1363;-58
2022/07/14 12:01:07;;;;;;;;;;;;;;;23.50;54.96;100989.25;7405922;19;1719;-55
2022/07/14 12:03:37;;;;;;;;;;;;;;;23.48;54.61;100993.94;7404566;19;1351;-55
2022/07/14 12:06:06;;;;;;;;;;;;;;;23.52;54.40;100998.84;7405448;19;1335;-58
2022/07/14 12:08:36;;;;;;;;;;;;;;;23.52;54.58;100987.22;7407396;19;1457;-54
2022/07/14 12:11:09;;;;;;;;;;;;;;;23.51;54.82;100977.41;7404688;19;1450;-58
2022/07/14 12:13:47;;;;;;;;;;;;;;;23.54;54.47;100971.72;7405349;19;1857;-55
2022/07/14 12:16:16;;;;;;;;;;;;;;;23.50;55.20;100973.03;7401313;19;1368;-56
2022/07/14 12:18:44;;;;;;;;;;;;;;;23.52;55.44;100971.03;7400723;19;1303;-56
2022/07/14 12:21:13;;;;;;;;;;;;;;;23.52;55.15;100973.72;7396099;19;1423;-58
2022/07/14 12:23:55;;;;;;;;;;;;;;;23.52;55.42;100971.03;7398968;19;1374;-56
2022/07/14 12:26:27;;;;;;;;;;;;;;;23.58;55.19;100968.53;7400502;19;1401;-58
2022/07/14 12:28:56;;;;;;;;;;;;;;;23.66;54.77;100973.13;7401249;19;1607;-55
2022/07/14 12:31:25;;;;;;;;;;;;;;;23.59;55.39;100950.47;7400738;19;1346;-56
2022/07/14 12:33:55;;;;;;;;;;;;;;;23.57;55.25;100958.72;7395982;19;1845;-55
2022/07/14 12:36:25;;;;;;;;;;;;;;;23.58;55.27;100959.59;7399382;19;1304;-54
2022/07/14 12:38:53;;;;;;;;;;;;;;;23.61;55.28;100975.44;7400521;19;1293;-60
2022/07/14 12:41:23;;;;;;;;;;;;;;;23.60;55.42;100957.56;7399888;19;1276;-58
2022/07/14 12:43:56;;;;;;;;;;;;;;;23.61;56.24;100940.34;7395267;19;1297;-56
2022/07/14 12:46:25;;;;;;;;;;;;;;;23.67;56.42;100946.97;7398786;19;1553;-56
2022/07/14 12:49:01;;;;;;;;;;;;;;;23.68;55.54;100949.50;7398237;19;1304;-56
2022/07/14 12:51:30;;;;;;;;;;;;;;;23.63;55.55;100941.03;7397909;19;1260;-56
2022/07/14 12:54:03;;;;;;;;;;;;;;;23.70;55.35;100949.34;7397595;19;1858;-54
2022/07/14 12:56:33;;;;;;;;;;;;;;;23.77;56.47;100944.97;7398376;19;1442;-57
2022/07/14 12:59:06;;;;;;;;;;;;;;;23.68;56.34;100933.31;7397934;19;1371;-55
2022/07/14 13:01:45;;;;;;;;;;;;;;;23.65;56.61;100933.63;7398538;19;1554;-56
2022/07/14 13:04:17;;;;;;;;;;;;;;;23.65;56.06;100938.19;7398612;19;1691;-57
2022/07/14 13:06:46;;;;;;;;;;;;;;;23.70;55.99;100933.97;7399013;19;1494;-57
2022/07/14 13:09:18;;;;;;;;;;;;;;;23.65;55.99;100917.41;7396864;19;1616;-59
2022/07/14 13:11:47;;;;;;;;;;;;;;;23.68;56.32;100919.81;7398849;19;1513;-58